ePrivacy and GPDR Cookie Consent by Cookie Consent
EmailTwitter


Surface observations / United Kingdom / EGLL (03772)

Regions: Quebec | Canada | USA | Europe | France | UK | Elsewhere
Station
Display
Info & Location for EGLL (03772) | Help decoding METAR

Weather Conditions observed on 2022/12/04 at 05:50 UTC at LONDON/HEATHROW, UK (EGLL)

Sky conditions: overcast.

Obstruction(s) to Vision: light rain.

Temperature: 4.0 Celsius.

Dewpoint: 2.0 Celsius.

Relative Humidity: 87%

Windchill Factor: 1.

Winds: Northeast at 11 km/h or 6 knots.

Mean Sea level Pressure: 101.50 kilopascals.

Horizontal visibility: 4.35 statute miles or 6.96 kilometers.

Height of the Ceiling: 335 metres ( 1100 feet ).

Coded METAR:

EGLL 040550Z AUTO 05006KT 010V070 7000 -RA BKN011 OVC022 04/02 Q1015=